Time;durP1;ratioP1;P1;durP2;ratioP2;P2;SDS_P1;SDS_P2;PMS_P1;PMS_P2;Temp;Humidity;BMP_temperature;BMP_pressure;BME280_temperature;BME280_humidity;BME280_pressure;Samples;Min_cycle;Max_cycle;Signal;HPM_P1;HPM_P2
2021/05/03 00:00:17;;;;;;;10.23;5.00;;;;;;;;;;5017062;28;20466;-83
2021/05/03 00:02:43;;;;;;;8.48;5.22;;;;;;;;;;5008159;28;20420;-84
2021/05/03 00:05:22;;;;;;;4.95;4.50;;;;;;;;;;5031289;28;20188;-83
2021/05/03 00:07:54;;;;;;;6.60;5.57;;;;;;;;;;5032943;28;20156;-83
2021/05/03 00:10:21;;;;;;;5.15;4.60;;;;;;;;;;5032176;28;20288;-82
2021/05/03 00:12:47;;;;;;;6.70;4.75;;;;;;;;;;5011562;28;20283;-84
2021/05/03 00:15:14;;;;;;;4.35;4.05;;;;;;;;;;5017270;28;20199;-82
2021/05/03 00:17:40;;;;;;;5.53;4.45;;;;;;;;;;5016124;28;20173;-83
2021/05/03 00:20:07;;;;;;;4.72;4.30;;;;;;;;;;5016859;28;20185;-82
2021/05/03 00:22:36;;;;;;;8.15;5.05;;;;;;;;;;5021008;28;20212;-84
2021/05/03 00:25:05;;;;;;;5.18;4.82;;;;;;;;;;5032070;28;20185;-84
2021/05/03 00:27:31;;;;;;;5.93;5.00;;;;;;;;;;5032739;28;20211;-83
2021/05/03 00:29:57;;;;;;;5.80;4.53;;;;;;;;;;5032425;28;20192;-82
2021/05/03 00:32:23;;;;;;;7.97;5.45;;;;;;;;;;5017384;28;20527;-82
2021/05/03 00:34:49;;;;;;;8.82;5.22;;;;;;;;;;5015360;28;20204;-83
2021/05/03 00:37:15;;;;;;;4.33;3.70;;;;;;;;;;5030979;28;20156;-83
2021/05/03 00:39:41;;;;;;;5.40;5.00;;;;;;;;;;5032035;28;20578;-83
2021/05/03 00:42:07;;;;;;;5.50;5.10;;;;;;;;;;5016310;28;20443;-83
2021/05/03 00:44:34;;;;;;;4.80;4.40;;;;;;;;;;5030401;28;20165;-82
2021/05/03 00:47:00;;;;;;;5.32;4.88;;;;;;;;;;5020521;28;20463;-83
2021/05/03 00:49:26;;;;;;;4.82;4.43;;;;;;;;;;5020661;28;20193;-83
2021/05/03 00:51:53;;;;;;;5.30;4.50;;;;;;;;;;5023600;28;20180;-80
2021/05/03 00:54:19;;;;;;;4.93;4.53;;;;;;;;;;5020988;28;20180;-82
2021/05/03 00:56:45;;;;;;;5.30;3.20;;;;;;;;;;5018415;28;20418;-83
2021/05/03 00:59:11;;;;;;;5.20;4.60;;;;;;;;;;5017742;28;20185;-83
2021/05/03 01:01:37;;;;;;;10.10;4.38;;;;;;;;;;5019319;28;20236;-83
2021/05/03 01:04:04;;;;;;;4.45;3.92;;;;;;;;;;5018416;28;20188;-84
2021/05/03 01:06:30;;;;;;;3.90;3.60;;;;;;;;;;5017585;28;20303;-82
2021/05/03 01:08:59;;;;;;;4.63;4.22;;;;;;;;;;5017493;28;20185;-82
2021/05/03 01:11:25;;;;;;;3.60;3.30;;;;;;;;;;5017170;28;20180;-84
2021/05/03 01:13:51;;;;;;;4.57;4.03;;;;;;;;;;5016783;28;20424;-81
2021/05/03 01:16:17;;;;;;;5.43;3.30;;;;;;;;;;5017713;28;20181;-83
2021/05/03 01:18:43;;;;;;;5.97;5.05;;;;;;;;;;5016904;28;20224;-83
2021/05/03 01:21:09;;;;;;;4.82;4.15;;;;;;;;;;5017040;28;20725;-83
2021/05/03 01:23:35;;;;;;;4.47;4.07;;;;;;;;;;5017726;28;20266;-82
2021/05/03 01:26:02;;;;;;;5.35;4.03;;;;;;;;;;5017810;28;20404;-83
2021/05/03 01:28:28;;;;;;;6.68;4.22;;;;;;;;;;5021782;28;20187;-83
2021/05/03 01:30:54;;;;;;;8.60;4.70;;;;;;;;;;5028703;28;20187;-83
2021/05/03 01:33:21;;;;;;;4.80;4.40;;;;;;;;;;5028111;28;20412;-81
2021/05/03 01:35:48;;;;;;;8.85;5.40;;;;;;;;;;5028017;28;20252;-84
2021/05/03 01:38:15;;;;;;;4.72;4.32;;;;;;;;;;5005121;28;20183;-82
2021/05/03 01:40:41;;;;;;;7.15;5.35;;;;;;;;;;5020117;28;20200;-83
2021/05/03 01:43:21;;;;;;;5.18;4.47;;;;;;;;;;5023629;28;20192;-81
2021/05/03 01:45:48;;;;;;;5.57;5.18;;;;;;;;;;5014949;28;20180;-82
2021/05/03 01:48:15;;;;;;;6.90;4.60;;;;;;;;;;5029765;28;20188;-81
2021/05/03 01:50:41;;;;;;;4.75;4.35;;;;;;;;;;5028087;28;20202;-81
2021/05/03 01:53:08;;;;;;;5.68;4.68;;;;;;;;;;5002438;28;20200;-83
2021/05/03 01:55:35;;;;;;;6.60;6.10;;;;;;;;;;5015788;28;20283;-81
2021/05/03 01:58:02;;;;;;;10.70;5.10;;;;;;;;;;5014497;28;20200;-83
2021/05/03 02:00:29;;;;;;;9.85;5.70;;;;;;;;;;5026101;28;20207;-81
2021/05/03 02:02:55;;;;;;;6.10;5.15;;;;;;;;;;5020116;28;20490;-81
2021/05/03 02:05:22;;;;;;;5.00;4.60;;;;;;;;;;5017116;28;20192;-83
2021/05/03 02:07:54;;;;;;;8.60;5.38;;;;;;;;;;5001301;28;20177;-83
2021/05/03 02:10:21;;;;;;;5.28;4.88;;;;;;;;;;5017490;28;20196;-83
2021/05/03 02:12:47;;;;;;;6.57;4.67;;;;;;;;;;5005814;28;20272;-83
2021/05/03 02:15:13;;;;;;;6.90;5.00;;;;;;;;;;5020695;28;20411;-83
2021/05/03 02:17:39;;;;;;;6.78;5.82;;;;;;;;;;5016340;28;20188;-84
2021/05/03 02:20:05;;;;;;;5.35;4.40;;;;;;;;;;5015758;28;20231;-84
2021/05/03 02:22:31;;;;;;;5.82;5.30;;;;;;;;;;5016428;28;20298;-83
2021/05/03 02:24:57;;;;;;;5.28;4.70;;;;;;;;;;5015514;28;20176;-84
2021/05/03 02:27:24;;;;;;;5.77;4.50;;;;;;;;;;5015506;28;20174;-82
2021/05/03 02:29:50;;;;;;;5.70;5.20;;;;;;;;;;5015716;28;20467;-83
2021/05/03 02:32:16;;;;;;;7.00;5.60;;;;;;;;;;5015829;28;20207;-83
2021/05/03 02:34:42;;;;;;;6.40;4.70;;;;;;;;;;4999455;28;20422;-82
2021/05/03 02:37:08;;;;;;;6.75;4.82;;;;;;;;;;5014953;28;20431;-84
2021/05/03 02:39:34;;;;;;;7.22;6.55;;;;;;;;;;5000968;28;20192;-83
2021/05/03 02:42:00;;;;;;;5.15;4.75;;;;;;;;;;5015165;28;20212;-83
2021/05/03 02:44:26;;;;;;;7.30;6.70;;;;;;;;;;5014919;28;20172;-84
2021/05/03 02:46:52;;;;;;;6.22;5.72;;;;;;;;;;5014173;28;20264;-84
2021/05/03 02:49:18;;;;;;;5.18;4.80;;;;;;;;;;5014890;28;20231;-83
2021/05/03 02:51:44;;;;;;;8.35;5.50;;;;;;;;;;5015327;28;20180;-82
2021/05/03 02:54:11;;;;;;;7.60;5.75;;;;;;;;;;5015020;28;20179;-83
2021/05/03 02:56:37;;;;;;;6.05;5.55;;;;;;;;;;5014800;28;20177;-83
2021/05/03 02:59:03;;;;;;;5.72;5.22;;;;;;;;;;5015517;28;20251;-84
2021/05/03 03:01:29;;;;;;;6.65;5.60;;;;;;;;;;5015297;28;20327;-83
2021/05/03 03:03:55;;;;;;;5.50;4.72;;;;;;;;;;5015915;28;20203;-83
2021/05/03 03:06:21;;;;;;;5.10;4.30;;;;;;;;;;4999850;28;20165;-83
2021/05/03 03:08:47;;;;;;;8.38;5.47;;;;;;;;;;5014765;28;20832;-83
2021/05/03 03:11:13;;;;;;;5.53;4.78;;;;;;;;;;5014762;28;20247;-81
2021/05/03 03:13:39;;;;;;;9.02;5.95;;;;;;;;;;5014588;28;20251;-84
2021/05/03 03:16:05;;;;;;;12.17;8.37;;;;;;;;;;5015824;28;20196;-83
2021/05/03 03:18:32;;;;;;;9.63;5.63;;;;;;;;;;5014509;28;20416;-83
2021/05/03 03:20:59;;;;;;;6.47;5.43;;;;;;;;;;5015441;28;20208;-82
2021/05/03 03:23:27;;;;;;;7.95;4.95;;;;;;;;;;5016812;28;20172;-81
2021/05/03 03:25:53;;;;;;;5.93;4.82;;;;;;;;;;5028836;28;20175;-83
2021/05/03 03:28:19;;;;;;;5.93;5.35;;;;;;;;;;5033459;28;20184;-83
2021/05/03 03:30:45;;;;;;;10.02;5.30;;;;;;;;;;5033255;28;20212;-83
2021/05/03 03:33:11;;;;;;;5.05;4.55;;;;;;;;;;5026117;28;20184;-83
2021/05/03 03:35:37;;;;;;;5.45;4.93;;;;;;;;;;5015738;28;20188;-83
2021/05/03 03:38:03;;;;;;;4.70;4.30;;;;;;;;;;5015973;28;20173;-83
2021/05/03 03:40:29;;;;;;;4.80;4.30;;;;;;;;;;4998910;28;20545;-84
2021/05/03 03:42:55;;;;;;;6.38;5.10;;;;;;;;;;5004659;28;20165;-83
2021/05/03 03:45:21;;;;;;;6.47;5.88;;;;;;;;;;5014360;28;20223;-82
2021/05/03 03:47:47;;;;;;;6.90;4.15;;;;;;;;;;5013909;28;20204;-84
2021/05/03 03:50:13;;;;;;;9.38;5.32;;;;;;;;;;5015190;28;20248;-83
2021/05/03 03:52:39;;;;;;;4.70;4.30;;;;;;;;;;5005345;28;20161;-82
2021/05/03 03:55:06;;;;;;;6.00;4.63;;;;;;;;;;5019480;28;20251;-84
2021/05/03 03:57:32;;;;;;;4.45;4.05;;;;;;;;;;4999882;28;20172;-83
2021/05/03 03:59:59;;;;;;;6.13;5.32;;;;;;;;;;5015601;28;20256;-84
2021/05/03 04:02:25;;;;;;;4.47;4.07;;;;;;;;;;5015359;28;20208;-85
2021/05/03 04:05:14;;;;;;;4.60;4.20;;;;;;;;;;5015712;28;20255;-84
2021/05/03 04:13:00;;;;;;;5.85;4.55;;;;;;;;;;5000061;28;20189;-84
2021/05/03 04:26:16;;;;;;;6.75;4.40;;;;;;;;;;5000086;28;20157;-82
2021/05/03 04:28:42;;;;;;;4.38;3.97;;;;;;;;;;4999950;28;20196;-83
2021/05/03 04:31:09;;;;;;;6.57;5.10;;;;;;;;;;5019006;28;20191;-84
2021/05/03 04:33:35;;;;;;;4.90;4.30;;;;;;;;;;5019227;28;20172;-84
2021/05/03 04:36:01;;;;;;;5.93;5.40;;;;;;;;;;5019927;28;20292;-84
2021/05/03 04:38:27;;;;;;;4.90;4.40;;;;;;;;;;5020447;28;20176;-83
2021/05/03 04:40:54;;;;;;;4.78;4.38;;;;;;;;;;5003671;28;20235;-84
2021/05/03 04:43:20;;;;;;;4.35;4.05;;;;;;;;;;5018611;28;20173;-83
2021/05/03 04:45:46;;;;;;;4.45;4.05;;;;;;;;;;5020910;28;20172;-83
2021/05/03 04:48:12;;;;;;;8.73;5.35;;;;;;;;;;5019546;28;20184;-85
2021/05/03 04:50:38;;;;;;;6.85;5.20;;;;;;;;;;5004359;28;20196;-83
2021/05/03 04:53:04;;;;;;;5.95;4.88;;;;;;;;;;5018554;28;20684;-85
2021/05/03 04:55:30;;;;;;;8.55;5.10;;;;;;;;;;5018933;28;20260;-83
2021/05/03 04:57:56;;;;;;;5.82;4.18;;;;;;;;;;5020249;28;20199;-83
2021/05/03 05:00:23;;;;;;;5.82;4.00;;;;;;;;;;5005407;28;20288;-81
2021/05/03 05:02:49;;;;;;;5.68;3.95;;;;;;;;;;5005554;28;20172;-80
2021/05/03 05:05:15;;;;;;;4.25;3.75;;;;;;;;;;5027813;28;20232;-84
2021/05/03 05:07:41;;;;;;;11.82;4.95;;;;;;;;;;5035910;28;20169;-83
2021/05/03 05:10:08;;;;;;;6.32;5.35;;;;;;;;;;5036169;28;20177;-85
2021/05/03 05:12:35;;;;;;;4.20;3.80;;;;;;;;;;5033620;28;20214;-83
2021/05/03 05:15:01;;;;;;;4.80;4.40;;;;;;;;;;5019109;28;20208;-84
2021/05/03 05:17:28;;;;;;;4.15;3.75;;;;;;;;;;5017225;28;20173;-84
2021/05/03 05:19:54;;;;;;;10.05;5.85;;;;;;;;;;5017720;28;20220;-83
2021/05/03 05:22:20;;;;;;;5.03;4.70;;;;;;;;;;5016096;28;20227;-84
2021/05/03 05:24:46;;;;;;;8.45;5.22;;;;;;;;;;5018220;28;20195;-84
2021/05/03 05:27:15;;;;;;;4.30;4.00;;;;;;;;;;5017855;28;20169;-84
2021/05/03 05:29:44;;;;;;;6.22;5.70;;;;;;;;;;5002892;28;20575;-84
2021/05/03 05:32:10;;;;;;;6.85;6.13;;;;;;;;;;5016680;28;20219;-82
2021/05/03 05:34:36;;;;;;;5.78;5.20;;;;;;;;;;5018308;28;20216;-84
2021/05/03 05:37:02;;;;;;;4.72;3.83;;;;;;;;;;5003326;28;20215;-83
2021/05/03 05:39:28;;;;;;;3.77;3.37;;;;;;;;;;5003255;28;20211;-83
2021/05/03 05:42:00;;;;;;;6.05;4.05;;;;;;;;;;5018371;28;20465;-84
2021/05/03 05:44:26;;;;;;;4.17;3.87;;;;;;;;;;5017883;28;20168;-84
2021/05/03 05:46:55;;;;;;;4.75;3.92;;;;;;;;;;5004101;28;20406;-83
2021/05/03 05:49:21;;;;;;;5.07;4.70;;;;;;;;;;5022141;28;20616;-83
2021/05/03 05:51:47;;;;;;;5.90;3.93;;;;;;;;;;5019755;28;20470;-84
2021/05/03 05:54:14;;;;;;;5.50;4.10;;;;;;;;;;5003603;28;20499;-84
2021/05/03 05:56:40;;;;;;;6.93;4.30;;;;;;;;;;5004933;28;20181;-84
2021/05/03 05:59:06;;;;;;;3.97;3.67;;;;;;;;;;5020739;28;20471;-86
2021/05/03 06:01:51;;;;;;;9.23;4.40;;;;;;;;;;5019233;28;20422;-84
2021/05/03 06:04:46;;;;;;;4.87;4.00;;;;;;;;;;4982596;28;20533;-85
2021/05/03 06:07:12;;;;;;;14.50;13.20;;;;;;;;;;4982007;28;20548;-85
2021/05/03 06:09:39;;;;;;;6.70;4.70;;;;;;;;;;5003373;28;20614;-85
2021/05/03 06:12:08;;;;;;;3.90;3.60;;;;;;;;;;5018574;28;20451;-83
2021/05/03 06:14:34;;;;;;;4.17;3.77;;;;;;;;;;5019055;28;20421;-84
2021/05/03 06:17:01;;;;;;;5.13;4.80;;;;;;;;;;5018768;28;20454;-84
2021/05/03 06:19:27;;;;;;;3.80;3.33;;;;;;;;;;5017874;28;20452;-83
2021/05/03 06:21:53;;;;;;;20.27;7.37;;;;;;;;;;5024105;28;20425;-84
2021/05/03 06:24:19;;;;;;;8.40;3.20;;;;;;;;;;5010308;28;20419;-84
2021/05/03 06:26:46;;;;;;;3.47;2.70;;;;;;;;;;5005381;28;20418;-84
2021/05/03 06:29:12;;;;;;;10.03;4.07;;;;;;;;;;5028171;23;20444;-87
2021/05/03 06:31:47;;;;;;;2.70;2.50;;;;;;;;;;5009881;28;20470;-86
2021/05/03 06:34:13;;;;;;;3.70;3.40;;;;;;;;;;5028370;28;20411;-86
2021/05/03 06:36:42;;;;;;;8.10;5.53;;;;;;;;;;5049221;28;20454;-86
2021/05/03 06:39:13;;;;;;;4.90;4.40;;;;;;;;;;5030009;28;20458;-83
2021/05/03 06:41:39;;;;;;;3.30;3.00;;;;;;;;;;5041826;28;20474;-84
2021/05/03 06:44:09;;;;;;;4.10;2.70;;;;;;;;;;5028550;28;20503;-85
2021/05/03 06:46:59;;;;;;;4.90;3.37;;;;;;;;;;5040079;28;20407;-83
2021/05/03 06:49:36;;;;;;;4.60;3.70;;;;;;;;;;5052568;28;20533;-85
2021/05/03 06:52:04;;;;;;;3.10;2.70;;;;;;;;;;5025763;28;20407;-88
2021/05/03 06:54:30;;;;;;;4.10;3.40;;;;;;;;;;5042021;28;20912;-85
2021/05/03 06:57:02;;;;;;;3.57;3.03;;;;;;;;;;5042300;28;20517;-85
2021/05/03 06:59:36;;;;;;;6.97;3.03;;;;;;;;;;5027881;28;20520;-84
2021/05/03 07:02:06;;;;;;;2.90;2.53;;;;;;;;;;5029137;28;20469;-86
2021/05/03 07:04:44;;;;;;;8.70;6.80;;;;;;;;;;5026301;28;20475;-85
2021/05/03 07:07:10;;;;;;;4.00;2.60;;;;;;;;;;5042284;28;20887;-86
2021/05/03 07:09:36;;;;;;;4.97;2.40;;;;;;;;;;5030651;28;20545;-87
2021/05/03 07:15:00;;;;;;;2.43;1.87;;;;;;;;;;5042860;28;20423;-85
2021/05/03 07:17:47;;;;;;;2.43;2.23;;;;;;;;;;5047139;28;20403;-83
2021/05/03 07:20:32;;;;;;;;;;;;;;;;;;;;;
2021/05/03 07:23:09;;;;;;;2.90;2.17;;;;;;;;;;5030427;28;20427;-85
2021/05/03 07:25:45;;;;;;;3.90;2.60;;;;;;;;;;5047511;28;20403;-85
2021/05/03 07:28:55;;;;;;;3.23;2.40;;;;;;;;;;5032049;28;20491;-84
2021/05/03 07:31:28;;;;;;;6.10;2.97;;;;;;;;;;5049357;28;20506;-85
2021/05/03 07:34:13;;;;;;;2.87;2.67;;;;;;;;;;5042572;28;20925;-83
2021/05/03 07:37:15;;;;;;;3.40;3.10;;;;;;;;;;5030011;28;20481;-84
2021/05/03 07:40:16;;;;;;;3.60;2.80;;;;;;;;;;5030591;28;20465;-84
2021/05/03 07:46:24;;;;;;;5.83;5.10;;;;;;;;;;5034174;28;20410;-84
2021/05/03 07:49:38;;;;;;;;;;;;;;;;;;;;;
2021/05/03 07:52:14;;;;;;;4.93;4.47;;;;;;;;;;5043052;28;20445;-84
2021/05/03 07:57:47;;;;;;;3.70;3.10;;;;;;;;;;5040891;28;20422;-83
2021/05/03 08:00:36;;;;;;;;;;;;;;;;;;;;;
2021/05/03 08:03:17;;;;;;;3.47;2.57;;;;;;;;;;5044133;28;20407;-86
2021/05/03 08:06:05;;;;;;;2.40;2.20;;;;;;;;;;5044361;28;20397;-85
2021/05/03 08:08:50;;;;;;;4.43;3.17;;;;;;;;;;5031779;28;20410;-84
2021/05/03 08:11:43;;;;;;;9.13;4.13;;;;;;;;;;5034102;28;20379;-84
2021/05/03 08:14:37;;;;;;;4.07;3.00;;;;;;;;;;5047161;28;20420;-86
2021/05/03 08:17:26;;;;;;;5.27;2.33;;;;;;;;;;5053397;28;20406;-86
2021/05/03 08:19:56;;;;;;;4.17;3.47;;;;;;;;;;5039176;28;20450;-82
2021/05/03 08:22:23;;;;;;;3.57;2.73;;;;;;;;;;5048915;28;20473;-84
2021/05/03 08:24:56;;;;;;;3.60;2.97;;;;;;;;;;5047594;28;20406;-83
2021/05/03 08:27:28;;;;;;;7.13;4.67;;;;;;;;;;5032331;28;20737;-82
2021/05/03 08:29:57;;;;;;;3.60;3.30;;;;;;;;;;5029677;28;20430;-81
2021/05/03 08:32:50;;;;;;;3.43;2.87;;;;;;;;;;5027310;28;20498;-83
2021/05/03 08:35:16;;;;;;;5.27;2.00;;;;;;;;;;5028410;28;20437;-83
2021/05/03 08:37:51;;;;;;;3.07;1.57;;;;;;;;;;5029177;28;20410;-83
2021/05/03 08:40:25;;;;;;;2.73;2.20;;;;;;;;;;5047470;28;20645;-83
2021/05/03 08:43:00;;;;;;;3.97;2.10;;;;;;;;;;5047949;28;20400;-85
2021/05/03 08:45:41;;;;;;;2.77;2.57;;;;;;;;;;5030760;28;20452;-84
2021/05/03 08:48:23;;;;;;;3.33;2.13;;;;;;;;;;5049244;28;20457;-83
2021/05/03 08:54:03;;;;;;;5.43;3.00;;;;;;;;;;5037454;28;20427;-83
2021/05/03 08:56:30;;;;;;;3.90;2.73;;;;;;;;;;5033045;28;20387;-84
2021/05/03 08:58:59;;;;;;;4.57;2.20;;;;;;;;;;5032823;28;20422;-84
2021/05/03 09:01:26;;;;;;;3.00;2.80;;;;;;;;;;5050132;28;20474;-84
2021/05/03 09:03:53;;;;;;;4.97;2.30;;;;;;;;;;5032402;28;20423;-83
2021/05/03 09:06:20;;;;;;;4.10;1.50;;;;;;;;;;5036322;28;20407;-84
2021/05/03 09:12:32;;;;;;;1.97;1.83;;;;;;;;;;5056045;28;20424;-85
2021/05/03 09:15:25;;;;;;;1.50;1.40;;;;;;;;;;5039302;28;20425;-83
2021/05/03 09:18:06;;;;;;;2.20;2.00;;;;;;;;;;5036702;28;20935;-82
2021/05/03 09:27:15;;;;;;;4.80;4.40;;;;;;;;;;5036150;28;20406;-84
2021/05/03 09:29:49;;;;;;;3.60;3.30;;;;;;;;;;5015175;28;20459;-86
2021/05/03 09:32:51;;;;;;;3.93;2.27;;;;;;;;;;5033641;28;20387;-83
2021/05/03 09:36:02;;;;;;;4.00;3.30;;;;;;;;;;5015841;28;20412;-85
2021/05/03 09:38:57;;;;;;;4.73;2.17;;;;;;;;;;5011000;28;20439;-83
2021/05/03 09:41:57;;;;;;;9.57;3.93;;;;;;;;;;5007767;28;20463;-84
2021/05/03 09:44:47;;;;;;;2.87;2.67;;;;;;;;;;5032977;28;20491;-83
2021/05/03 09:47:23;;;;;;;3.70;2.33;;;;;;;;;;5010226;28;20498;-87
2021/05/03 09:50:22;;;;;;;;;;;;;;;;;;;;;
2021/05/03 09:53:05;;;;;;;3.00;2.70;;;;;;;;;;5032620;28;20408;-84
2021/05/03 09:56:55;;;;;;;;;;;;;;;;;;;;;
2021/05/03 09:59:54;;;;;;;3.20;2.13;;;;;;;;;;5048526;28;20413;-85
2021/05/03 10:05:39;;;;;;;6.60;2.70;;;;;;;;;;5048248;28;20397;-82
2021/05/03 10:08:17;;;;;;;4.20;2.20;;;;;;;;;;5031131;28;20418;-83
2021/05/03 10:10:50;;;;;;;4.13;2.70;;;;;;;;;;5033213;28;20422;-85
2021/05/03 10:13:18;;;;;;;3.03;2.20;;;;;;;;;;5041276;28;20409;-84
2021/05/03 10:15:48;;;;;;;3.60;2.80;;;;;;;;;;5042106;28;20406;-83
2021/05/03 10:18:23;;;;;;;3.93;2.60;;;;;;;;;;5041612;28;20406;-84
2021/05/03 10:20:50;;;;;;;2.17;1.97;;;;;;;;;;5057940;28;20445;-83
2021/05/03 10:23:18;;;;;;;1.70;1.60;;;;;;;;;;5039413;28;20417;-82
2021/05/03 10:25:47;;;;;;;4.70;2.80;;;;;;;;;;5049533;28;20480;-82
2021/05/03 10:28:14;;;;;;;5.30;2.33;;;;;;;;;;5028526;28;20957;-82
2021/05/03 10:30:47;;;;;;;2.80;2.43;;;;;;;;;;5028196;28;20453;-82
2021/05/03 10:33:14;;;;;;;3.20;2.30;;;;;;;;;;5028110;28;20406;-82
2021/05/03 10:35:42;;;;;;;3.20;2.90;;;;;;;;;;5011817;28;20440;-82
2021/05/03 10:38:32;;;;;;;2.90;1.83;;;;;;;;;;5007211;28;20433;-81
2021/05/03 10:40:59;;;;;;;3.40;1.97;;;;;;;;;;5009186;28;20467;-83
2021/05/03 10:43:42;;;;;;;1.90;1.80;;;;;;;;;;5023425;28;20475;-85
2021/05/03 10:49:20;;;;;;;2.50;1.63;;;;;;;;;;5007418;28;20412;-81
2021/05/03 10:51:54;;;;;;;5.07;2.43;;;;;;;;;;5008472;28;20760;-82
2021/05/03 10:57:18;;;;;;;1.90;1.80;;;;;;;;;;5007658;28;20451;-84
2021/05/03 10:59:47;;;;;;;2.00;1.90;;;;;;;;;;5026729;28;20545;-84
2021/05/03 11:02:18;;;;;;;2.27;2.07;;;;;;;;;;5024288;28;20463;-82
2021/05/03 11:05:03;;;;;;;2.07;1.90;;;;;;;;;;5021968;28;20419;-84
2021/05/03 11:07:29;;;;;;;2.33;2.13;;;;;;;;;;5008251;28;20414;-83
2021/05/03 11:09:55;;;;;;;1.67;1.57;;;;;;;;;;5011093;28;20440;-84
2021/05/03 11:12:25;;;;;;;1.73;1.63;;;;;;;;;;5015625;28;20478;-85
2021/05/03 11:15:13;;;;;;;2.63;1.83;;;;;;;;;;5031775;28;20428;-85
2021/05/03 11:17:58;;;;;;;3.10;1.50;;;;;;;;;;5028013;28;20959;-82
2021/05/03 11:20:25;;;;;;;1.67;1.53;;;;;;;;;;5023092;28;20443;-86
2021/05/03 11:23:04;;;;;;;3.07;1.57;;;;;;;;;;5009579;28;20455;-84
2021/05/03 11:25:39;;;;;;;2.00;1.50;;;;;;;;;;5025618;28;20423;-87
2021/05/03 11:28:18;;;;;;;4.57;1.40;;;;;;;;;;5032327;28;20407;-84
2021/05/03 11:30:57;;;;;;;1.50;1.30;;;;;;;;;;5033699;28;20435;-85
2021/05/03 11:33:41;;;;;;;1.67;1.43;;;;;;;;;;5026709;28;20832;-83
2021/05/03 11:36:23;;;;;;;4.30;3.00;;;;;;;;;;5016110;28;20381;-85
2021/05/03 11:39:39;;;;;;;4.10;2.37;;;;;;;;;;5016579;28;20414;-86
2021/05/03 11:42:39;;;;;;;6.40;2.90;;;;;;;;;;5017113;28;20470;-83
2021/05/03 11:44:58;;;;;;;1.97;1.40;;;;;;;;;;5010873;28;20423;-82
2021/05/03 11:47:31;;;;;;;1.60;1.50;;;;;;;;;;5009159;28;20404;-84
2021/05/03 11:50:03;;;;;;;3.23;2.13;;;;;;;;;;5029698;28;20443;-84
2021/05/03 11:52:55;;;;;;;1.73;1.63;;;;;;;;;;5047007;28;20411;-84
2021/05/03 11:55:25;;;;;;;3.57;1.83;;;;;;;;;;5008987;28;20403;-86
2021/05/03 11:58:28;;;;;;;5.70;5.10;;;;;;;;;;5024146;28;20413;-84
2021/05/03 12:02:08;;;;;;;3.23;1.87;;;;;;;;;;5009206;28;20447;-86
2021/05/03 12:04:50;;;;;;;2.97;2.60;;;;;;;;;;5031751;28;20433;-89
2021/05/03 12:07:20;;;;;;;1.60;1.50;;;;;;;;;;5034892;28;20409;-89
2021/05/03 12:09:59;;;;;;;2.53;1.90;;;;;;;;;;5032487;28;20428;-87
2021/05/03 12:12:25;;;;;;;3.37;3.07;;;;;;;;;;5031473;28;20445;-85
2021/05/03 12:14:52;;;;;;;4.60;1.83;;;;;;;;;;5028787;28;20806;-84
2021/05/03 12:17:23;;;;;;;2.30;1.97;;;;;;;;;;5031748;28;20476;-83
2021/05/03 12:19:50;;;;;;;1.83;1.50;;;;;;;;;;5030365;28;20449;-85
2021/05/03 12:22:17;;;;;;;3.27;2.10;;;;;;;;;;5030151;28;20505;-87
2021/05/03 12:24:47;;;;;;;2.13;1.60;;;;;;;;;;5034176;28;20470;-86
2021/05/03 12:27:14;;;;;;;1.90;1.80;;;;;;;;;;5033732;28;20549;-87
2021/05/03 12:36:27;;;;;;;4.10;3.23;;;;;;;;;;4967818;28;20424;-88
2021/05/03 12:42:55;;;;;;;7.83;7.10;;;;;;;;;;4985905;28;20577;-85
2021/05/03 13:05:53;;;;;;;2.83;1.77;;;;;;;;;;4988988;28;20393;-85
2021/05/03 13:08:55;;;;;;;3.33;3.03;;;;;;;;;;4986072;28;20507;-86
2021/05/03 13:29:00;;;;;;;3.40;3.10;;;;;;;;;;4996874;28;20408;-84
2021/05/03 13:31:33;;;;;;;3.00;2.27;;;;;;;;;;4999434;28;20440;-83
2021/05/03 13:34:27;;;;;;;3.23;2.40;;;;;;;;;;4999697;28;20435;-86
2021/05/03 13:36:59;;;;;;;2.80;2.57;;;;;;;;;;4997412;28;20424;-85
2021/05/03 13:39:35;;;;;;;4.03;3.73;;;;;;;;;;4988546;28;20917;-86
2021/05/03 13:42:01;;;;;;;2.90;2.70;;;;;;;;;;4990071;28;20534;-85
2021/05/03 13:45:03;;;;;;;3.17;2.80;;;;;;;;;;4991146;28;20813;-86
2021/05/03 13:47:54;;;;;;;2.97;2.77;;;;;;;;;;5005850;28;20412;-84
2021/05/03 13:50:28;;;;;;;6.10;4.10;;;;;;;;;;4988694;28;20435;-85
2021/05/03 13:53:22;;;;;;;3.90;3.63;;;;;;;;;;4975202;28;20400;-88
2021/05/03 13:56:00;;;;;;;5.03;4.53;;;;;;;;;;4989525;28;20425;-83
2021/05/03 13:58:30;;;;;;;4.17;3.87;;;;;;;;;;4987081;28;20432;-84
2021/05/03 14:01:02;;;;;;;6.03;5.20;;;;;;;;;;4985577;28;20464;-86
2021/05/03 14:04:00;;;;;;;5.90;5.40;;;;;;;;;;4984770;28;20459;-85
2021/05/03 14:06:42;;;;;;;6.07;5.57;;;;;;;;;;4986165;28;20401;-85
2021/05/03 14:09:17;;;;;;;5.57;5.07;;;;;;;;;;4987922;28;20484;-86
2021/05/03 14:11:44;;;;;;;5.30;4.87;;;;;;;;;;4986233;28;20441;-86
2021/05/03 14:14:11;;;;;;;4.50;4.03;;;;;;;;;;4991553;28;20427;-86
2021/05/03 14:17:04;;;;;;;6.37;5.77;;;;;;;;;;4989498;28;20444;-86
2021/05/03 14:19:59;;;;;;;6.30;5.80;;;;;;;;;;4990373;28;20447;-86
2021/05/03 14:29:46;;;;;;;5.77;5.27;;;;;;;;;;4927510;29;20442;-84
2021/05/03 14:33:15;;;;;;;5.50;5.00;;;;;;;;;;4915276;29;20435;-85
2021/05/03 14:43:11;;;;;;;6.67;6.10;;;;;;;;;;4908404;29;20466;-86
2021/05/03 14:48:58;;;;;;;6.57;5.97;;;;;;;;;;4929465;29;20426;-85
2021/05/03 14:57:49;;;;;;;6.43;5.83;;;;;;;;;;4946711;29;20422;-84
2021/05/03 15:01:00;;;;;;;5.50;5.00;;;;;;;;;;4916769;29;20498;-84
2021/05/03 15:04:03;;;;;;;6.60;4.67;;;;;;;;;;4957385;28;20467;-85
2021/05/03 15:06:55;;;;;;;5.03;4.70;;;;;;;;;;5005912;28;20447;-85
2021/05/03 16:05:29;;;;;;;9.10;8.20;;;;;;;;;;4931621;29;20474;-85
2021/05/03 16:08:01;;;;;;;7.27;6.53;;;;;;;;;;4928201;29;20418;-85
2021/05/03 16:10:36;;;;;;;6.73;5.87;;;;;;;;;;4915773;28;20594;-85
2021/05/03 16:13:10;;;;;;;8.03;6.43;;;;;;;;;;4951716;28;20492;-85
2021/05/03 16:15:46;;;;;;;;;;;;;;;;;;;;;
2021/05/03 16:18:32;;;;;;;7.67;6.93;;;;;;;;;;4936137;28;20403;-85
2021/05/03 16:21:27;;;;;;;7.10;6.57;;;;;;;;;;4950930;28;20518;-87
2021/05/03 16:23:56;;;;;;;7.27;6.67;;;;;;;;;;4970610;28;20491;-85
2021/05/03 16:26:28;;;;;;;6.53;5.30;;;;;;;;;;4953391;28;20499;-85
2021/05/03 16:29:00;;;;;;;6.50;6.00;;;;;;;;;;4954855;28;20426;-84
2021/05/03 16:31:52;;;;;;;7.83;5.97;;;;;;;;;;4937920;28;20447;-84
2021/05/03 16:34:39;;;;;;;6.17;5.70;;;;;;;;;;4942492;29;20510;-84
2021/05/03 16:37:21;;;;;;;5.93;5.43;;;;;;;;;;4942839;29;20423;-84
2021/05/03 16:39:50;;;;;;;5.73;5.33;;;;;;;;;;4942364;28;20411;-83
2021/05/03 16:42:19;;;;;;;6.20;5.70;;;;;;;;;;4942974;29;20462;-84
2021/05/03 16:45:32;;;;;;;6.70;6.20;;;;;;;;;;4944488;28;20403;-84
2021/05/03 16:48:07;;;;;;;5.90;5.50;;;;;;;;;;4934020;28;20904;-84
2021/05/03 16:50:52;;;;;;;10.37;9.67;;;;;;;;;;4941453;29;20462;-84
2021/05/03 16:53:35;;;;;;;6.17;5.70;;;;;;;;;;4952814;28;20499;-84
2021/05/03 16:56:01;;;;;;;7.03;6.33;;;;;;;;;;4937842;28;20419;-87
2021/05/03 16:58:34;;;;;;;8.83;8.13;;;;;;;;;;4955172;28;20411;-87
2021/05/03 17:01:07;;;;;;;9.80;9.00;;;;;;;;;;4931020;28;20477;-87
2021/05/03 17:16:10;;;;;;;12.07;11.00;;;;;;;;;;5005028;28;20460;-86
2021/05/03 17:18:45;;;;;;;16.57;15.13;;;;;;;;;;5005695;28;20448;-87
2021/05/03 17:21:23;;;;;;;13.97;12.70;;;;;;;;;;5004644;28;20866;-85
2021/05/03 17:24:07;;;;;;;14.53;13.10;;;;;;;;;;5005394;28;20534;-86
2021/05/03 17:26:38;;;;;;;11.40;10.60;;;;;;;;;;5005740;28;20451;-86
2021/05/03 17:30:22;;;;;;;17.27;12.77;;;;;;;;;;5007426;28;20420;-87
2021/05/03 17:33:03;;;;;;;14.13;12.83;;;;;;;;;;4965099;29;20421;-86
2021/05/03 17:36:12;;;;;;;14.07;12.77;;;;;;;;;;4930484;29;20421;-85
2021/05/03 17:40:03;;;;;;;;;;;;;;;;;;;;;
2021/05/03 18:36:32;;;;;;;18.63;16.50;;;;;;;;;;4955676;26;20456;-86
2021/05/03 18:39:08;;;;;;;17.40;15.80;;;;;;;;;;4957100;29;20423;-87
2021/05/03 18:41:38;;;;;;;14.80;13.67;;;;;;;;;;4918663;29;20517;-86
2021/05/03 18:44:10;;;;;;;17.30;15.70;;;;;;;;;;4922053;29;20458;-86
2021/05/03 18:49:47;;;;;;;15.80;14.40;;;;;;;;;;5144390;23;20490;-84
2021/05/03 18:52:35;;;;;;;26.07;23.13;;;;;;;;;;5033598;28;20414;-84
2021/05/03 18:55:07;;;;;;;20.70;18.77;;;;;;;;;;5020889;28;20548;-83
2021/05/03 18:57:34;;;;;;;20.20;18.27;;;;;;;;;;5030857;28;20446;-84
2021/05/03 19:00:00;;;;;;;17.70;16.30;;;;;;;;;;5025671;28;20780;-84
2021/05/03 19:02:27;;;;;;;14.10;12.97;;;;;;;;;;5023719;28;20482;-84
2021/05/03 19:05:30;;;;;;;15.73;14.27;;;;;;;;;;5011436;28;20424;-86
2021/05/03 19:08:07;;;;;;;14.77;13.27;;;;;;;;;;5031376;28;20441;-84
2021/05/03 19:10:45;;;;;;;13.33;12.23;;;;;;;;;;5030013;28;20411;-81
2021/05/03 19:13:24;;;;;;;12.23;11.20;;;;;;;;;;5013457;28;20407;-85
2021/05/03 19:16:04;;;;;;;;;;;;;;;;;;;;;
2021/05/03 19:19:08;;;;;;;16.10;14.07;;;;;;;;;;5028719;28;20446;-85
2021/05/03 19:21:51;;;;;;;20.83;18.60;;;;;;;;;;5004252;28;20465;-85
2021/05/03 19:24:23;;;;;;;15.80;14.40;;;;;;;;;;5014616;28;20418;-82
2021/05/03 19:27:02;;;;;;;18.77;17.07;;;;;;;;;;5033557;28;20359;-83
2021/05/03 19:29:54;;;;;;;25.33;22.87;;;;;;;;;;5014766;28;20410;-86
2021/05/03 19:32:58;;;;;;;19.10;17.30;;;;;;;;;;5023305;28;20438;-85
2021/05/03 19:35:34;;;;;;;28.77;25.93;;;;;;;;;;5022534;28;20407;-85
2021/05/03 19:38:12;;;;;;;29.30;26.70;;;;;;;;;;4999343;28;20457;-85